sensor_id;sensor_type;location;lat;lon;timestamp;pressure;altitude;pressure_sealevel;temperature;humidity
59971;BME280;45825;45.434;9.116;2022-12-13T00:00:44;99911.88;;;1.84;100.00
59971;BME280;45825;45.434;9.116;2022-12-13T00:03:09;99909.25;;;1.85;100.00
59971;BME280;45825;45.434;9.116;2022-12-13T00:05:41;99903.53;;;1.71;100.00
59971;BME280;45825;45.434;9.116;2022-12-13T00:08:07;99905.19;;;1.73;100.00
59971;BME280;45825;45.434;9.116;2022-12-13T00:10:32;99909.75;;;1.65;100.00
59971;BME280;45825;45.434;9.116;2022-12-13T00:12:57;99904.34;;;1.73;100.00
59971;BME280;45825;45.434;9.116;2022-12-13T00:15:23;99898.97;;;1.80;100.00
59971;BME280;45825;45.434;9.116;2022-12-13T00:17:48;99902.44;;;1.81;100.00
59971;BME280;45825;45.434;9.116;2022-12-13T00:20:13;99905.13;;;1.76;100.00
59971;BME280;45825;45.434;9.116;2022-12-13T00:22:39;99911.25;;;1.74;100.00
59971;BME280;45825;45.434;9.116;2022-12-13T00:25:04;99911.53;;;1.63;100.00
59971;BME280;45825;45.434;9.116;2022-12-13T00:27:29;99900.78;;;1.77;100.00
59971;BME280;45825;45.434;9.116;2022-12-13T00:29:55;99899.94;;;1.76;100.00
59971;BME280;45825;45.434;9.116;2022-12-13T00:32:20;99893.22;;;1.67;100.00
59971;BME280;45825;45.434;9.116;2022-12-13T00:34:45;99895.59;;;1.77;100.00
59971;BME280;45825;45.434;9.116;2022-12-13T00:37:11;99889.56;;;1.76;100.00
59971;BME280;45825;45.434;9.116;2022-12-13T00:39:36;99889.47;;;1.81;100.00
59971;BME280;45825;45.434;9.116;2022-12-13T00:42:02;99893.59;;;1.88;100.00
59971;BME280;45825;45.434;9.116;2022-12-13T00:44:28;99889.97;;;1.94;100.00
59971;BME280;45825;45.434;9.116;2022-12-13T00:46:53;99897.00;;;1.90;100.00
59971;BME280;45825;45.434;9.116;2022-12-13T00:49:19;99901.38;;;1.88;100.00
59971;BME280;45825;45.434;9.116;2022-12-13T00:51:44;99892.53;;;1.95;100.00
59971;BME280;45825;45.434;9.116;2022-12-13T00:54:09;99889.84;;;2.00;100.00
59971;BME280;45825;45.434;9.116;2022-12-13T00:56:36;99893.28;;;2.01;100.00
59971;BME280;45825;45.434;9.116;2022-12-13T00:59:02;99886.47;;;1.97;100.00
59971;BME280;45825;45.434;9.116;2022-12-13T01:01:30;99879.91;;;1.81;100.00
59971;BME280;45825;45.434;9.116;2022-12-13T01:03:58;99889.47;;;1.81;100.00
59971;BME280;45825;45.434;9.116;2022-12-13T01:06:28;99881.50;;;1.87;100.00
59971;BME280;45825;45.434;9.116;2022-12-13T01:08:54;99869.22;;;1.94;100.00
59971;BME280;45825;45.434;9.116;2022-12-13T01:11:20;99863.97;;;1.97;100.00
59971;BME280;45825;45.434;9.116;2022-12-13T01:13:45;99858.13;;;1.89;100.00
59971;BME280;45825;45.434;9.116;2022-12-13T01:16:11;99862.31;;;1.93;100.00
59971;BME280;45825;45.434;9.116;2022-12-13T01:18:38;99866.34;;;2.05;100.00
59971;BME280;45825;45.434;9.116;2022-12-13T01:21:07;99865.72;;;1.95;100.00
59971;BME280;45825;45.434;9.116;2022-12-13T01:23:33;99880.59;;;1.88;100.00
59971;BME280;45825;45.434;9.116;2022-12-13T01:26:02;99892.66;;;1.91;100.00
59971;BME280;45825;45.434;9.116;2022-12-13T01:28:28;99897.81;;;1.92;100.00
59971;BME280;45825;45.434;9.116;2022-12-13T01:31:01;99894.81;;;2.08;100.00
59971;BME280;45825;45.434;9.116;2022-12-13T01:33:27;99888.78;;;2.07;100.00
59971;BME280;45825;45.434;9.116;2022-12-13T01:35:53;99898.94;;;2.17;100.00
59971;BME280;45825;45.434;9.116;2022-12-13T01:38:19;99889.28;;;2.20;100.00
59971;BME280;45825;45.434;9.116;2022-12-13T01:40:47;99883.63;;;2.06;100.00
59971;BME280;45825;45.434;9.116;2022-12-13T01:43:14;99887.25;;;2.00;100.00
59971;BME280;45825;45.434;9.116;2022-12-13T01:45:39;99885.22;;;2.12;100.00
59971;BME280;45825;45.434;9.116;2022-12-13T01:48:09;99885.44;;;2.02;100.00
59971;BME280;45825;45.434;9.116;2022-12-13T01:50:38;99881.59;;;2.17;100.00
59971;BME280;45825;45.434;9.116;2022-12-13T01:53:06;99879.91;;;2.16;100.00
59971;BME280;45825;45.434;9.116;2022-12-13T01:55:36;99870.63;;;2.07;100.00
59971;BME280;45825;45.434;9.116;2022-12-13T01:58:04;99879.44;;;2.00;100.00
59971;BME280;45825;45.434;9.116;2022-12-13T02:00:30;99875.81;;;2.07;100.00
59971;BME280;45825;45.434;9.116;2022-12-13T02:02:57;99879.16;;;2.11;100.00
59971;BME280;45825;45.434;9.116;2022-12-13T02:07:51;99874.47;;;2.26;100.00
59971;BME280;45825;45.434;9.116;2022-12-13T02:10:17;99870.94;;;2.28;100.00
59971;BME280;45825;45.434;9.116;2022-12-13T02:12:43;99865.69;;;2.30;100.00
59971;BME280;45825;45.434;9.116;2022-12-13T02:15:14;99870.16;;;2.25;100.00
59971;BME280;45825;45.434;9.116;2022-12-13T02:20:45;99857.78;;;2.33;100.00
59971;BME280;45825;45.434;9.116;2022-12-13T02:23:39;99848.81;;;2.45;100.00
59971;BME280;45825;45.434;9.116;2022-12-13T02:31:53;99853.22;;;2.43;100.00
59971;BME280;45825;45.434;9.116;2022-12-13T02:34:27;99846.34;;;2.40;100.00
59971;BME280;45825;45.434;9.116;2022-12-13T02:37:04;99846.34;;;2.40;100.00
59971;BME280;45825;45.434;9.116;2022-12-13T02:39:38;99837.75;;;2.38;100.00
59971;BME280;45825;45.434;9.116;2022-12-13T02:42:18;99835.84;;;2.45;100.00
59971;BME280;45825;45.434;9.116;2022-12-13T02:45:13;99838.06;;;2.57;100.00
59971;BME280;45825;45.434;9.116;2022-12-13T02:47:37;99835.03;;;2.73;100.00
59971;BME280;45825;45.434;9.116;2022-12-13T02:50:05;99838.59;;;2.69;100.00
59971;BME280;45825;45.434;9.116;2022-12-13T02:52:32;99837.53;;;2.76;100.00
59971;BME280;45825;45.434;9.116;2022-12-13T02:54:58;99843.13;;;2.62;100.00
59971;BME280;45825;45.434;9.116;2022-12-13T02:57:32;99840.38;;;2.68;100.00
59971;BME280;45825;45.434;9.116;2022-12-13T03:00:05;99845.75;;;2.62;100.00
59971;BME280;45825;45.434;9.116;2022-12-13T03:02:48;99853.38;;;2.68;100.00
59971;BME280;45825;45.434;9.116;2022-12-13T03:05:40;99851.25;;;2.51;100.00
59971;BME280;45825;45.434;9.116;2022-12-13T03:11:19;99846.69;;;2.28;100.00
59971;BME280;45825;45.434;9.116;2022-12-13T03:14:12;99839.13;;;2.20;100.00
59971;BME280;45825;45.434;9.116;2022-12-13T03:16:47;99836.72;;;2.44;100.00
59971;BME280;45825;45.434;9.116;2022-12-13T03:19:17;99825.34;;;2.48;100.00
59971;BME280;45825;45.434;9.116;2022-12-13T03:21:48;99834.66;;;2.57;100.00
59971;BME280;45825;45.434;9.116;2022-12-13T03:24:18;99834.28;;;2.37;100.00
59971;BME280;45825;45.434;9.116;2022-12-13T03:26:45;99829.81;;;2.44;100.00
59971;BME280;45825;45.434;9.116;2022-12-13T03:29:11;99827.06;;;2.49;100.00
59971;BME280;45825;45.434;9.116;2022-12-13T03:31:36;99821.00;;;2.50;100.00
59971;BME280;45825;45.434;9.116;2022-12-13T03:34:02;99814.06;;;2.49;100.00
59971;BME280;45825;45.434;9.116;2022-12-13T03:36:27;99815.19;;;2.40;100.00
59971;BME280;45825;45.434;9.116;2022-12-13T03:38:53;99818.78;;;2.36;100.00
59971;BME280;45825;45.434;9.116;2022-12-13T03:41:22;99812.81;;;2.32;100.00
59971;BME280;45825;45.434;9.116;2022-12-13T03:43:48;99822.75;;;2.18;100.00
59971;BME280;45825;45.434;9.116;2022-12-13T03:46:14;99820.09;;;2.19;100.00
59971;BME280;45825;45.434;9.116;2022-12-13T03:48:39;99824.44;;;2.19;100.00
59971;BME280;45825;45.434;9.116;2022-12-13T03:51:05;99814.09;;;2.17;100.00
59971;BME280;45825;45.434;9.116;2022-12-13T03:53:30;99818.53;;;2.14;100.00
59971;BME280;45825;45.434;9.116;2022-12-13T03:55:56;99823.66;;;2.17;100.00
59971;BME280;45825;45.434;9.116;2022-12-13T03:58:22;99822.09;;;2.09;100.00
59971;BME280;45825;45.434;9.116;2022-12-13T04:00:47;99804.38;;;2.24;100.00
59971;BME280;45825;45.434;9.116;2022-12-13T04:03:13;99806.63;;;2.36;100.00
59971;BME280;45825;45.434;9.116;2022-12-13T04:05:38;99812.56;;;2.42;100.00
59971;BME280;45825;45.434;9.116;2022-12-13T04:08:04;99811.78;;;2.38;100.00
59971;BME280;45825;45.434;9.116;2022-12-13T04:10:30;99806.47;;;2.43;100.00
59971;BME280;45825;45.434;9.116;2022-12-13T04:12:55;99798.69;;;2.43;100.00
59971;BME280;45825;45.434;9.116;2022-12-13T04:15:39;99809.53;;;2.26;100.00
59971;BME280;45825;45.434;9.116;2022-12-13T04:18:13;99823.59;;;2.18;100.00
59971;BME280;45825;45.434;9.116;2022-12-13T04:20:39;99817.44;;;2.22;100.00
59971;BME280;45825;45.434;9.116;2022-12-13T04:23:04;99817.28;;;2.27;100.00
59971;BME280;45825;45.434;9.116;2022-12-13T04:25:29;99814.88;;;2.21;100.00
59971;BME280;45825;45.434;9.116;2022-12-13T04:27:54;99816.91;;;2.09;100.00
59971;BME280;45825;45.434;9.116;2022-12-13T04:30:20;99804.75;;;2.10;100.00
59971;BME280;45825;45.434;9.116;2022-12-13T04:32:45;99802.16;;;2.10;100.00
59971;BME280;45825;45.434;9.116;2022-12-13T04:35:10;99801.34;;;2.09;100.00
59971;BME280;45825;45.434;9.116;2022-12-13T04:37:36;99805.88;;;2.01;100.00
59971;BME280;45825;45.434;9.116;2022-12-13T04:40:01;99802.47;;;1.99;100.00
59971;BME280;45825;45.434;9.116;2022-12-13T04:42:27;99797.25;;;2.01;100.00
59971;BME280;45825;45.434;9.116;2022-12-13T04:44:52;99789.94;;;2.15;100.00
59971;BME280;45825;45.434;9.116;2022-12-13T04:47:18;99792.53;;;2.15;100.00
59971;BME280;45825;45.434;9.116;2022-12-13T04:49:43;99793.56;;;2.08;100.00
59971;BME280;45825;45.434;9.116;2022-12-13T04:52:09;99784.91;;;2.09;100.00
59971;BME280;45825;45.434;9.116;2022-12-13T04:54:35;99780.22;;;2.22;100.00
59971;BME280;45825;45.434;9.116;2022-12-13T04:57:00;99778.13;;;2.35;100.00
59971;BME280;45825;45.434;9.116;2022-12-13T04:59:25;99768.78;;;2.29;100.00
59971;BME280;45825;45.434;9.116;2022-12-13T05:01:50;99778.19;;;2.32;100.00
59971;BME280;45825;45.434;9.116;2022-12-13T05:04:16;99770.38;;;2.33;100.00
59971;BME280;45825;45.434;9.116;2022-12-13T05:06:41;99769.94;;;2.19;100.00
59971;BME280;45825;45.434;9.116;2022-12-13T05:09:06;99767.53;;;2.11;100.00
59971;BME280;45825;45.434;9.116;2022-12-13T05:11:32;99772.03;;;2.04;100.00
59971;BME280;45825;45.434;9.116;2022-12-13T05:13:57;99773.13;;;1.97;100.00
59971;BME280;45825;45.434;9.116;2022-12-13T05:16:22;99779.41;;;1.88;100.00
59971;BME280;45825;45.434;9.116;2022-12-13T05:18:48;99772.69;;;1.81;100.00
59971;BME280;45825;45.434;9.116;2022-12-13T05:21:13;99775.19;;;1.84;100.00
59971;BME280;45825;45.434;9.116;2022-12-13T05:23:38;99779.00;;;2.04;100.00
59971;BME280;45825;45.434;9.116;2022-12-13T05:26:04;99771.97;;;2.07;100.00
59971;BME280;45825;45.434;9.116;2022-12-13T05:28:31;99780.25;;;2.20;100.00
59971;BME280;45825;45.434;9.116;2022-12-13T05:31:03;99768.94;;;2.23;100.00
59971;BME280;45825;45.434;9.116;2022-12-13T05:33:30;99777.66;;;2.20;100.00
59971;BME280;45825;45.434;9.116;2022-12-13T05:35:55;99763.44;;;2.34;100.00
59971;BME280;45825;45.434;9.116;2022-12-13T05:38:20;99767.94;;;2.27;100.00
59971;BME280;45825;45.434;9.116;2022-12-13T05:40:46;99768.53;;;2.07;100.00
59971;BME280;45825;45.434;9.116;2022-12-13T05:43:11;99764.53;;;2.25;100.00
59971;BME280;45825;45.434;9.116;2022-12-13T05:45:36;99770.63;;;2.24;100.00
59971;BME280;45825;45.434;9.116;2022-12-13T05:48:02;99768.66;;;2.32;100.00
59971;BME280;45825;45.434;9.116;2022-12-13T05:50:27;99762.44;;;2.38;100.00
59971;BME280;45825;45.434;9.116;2022-12-13T05:52:53;99774.50;;;2.41;100.00
59971;BME280;45825;45.434;9.116;2022-12-13T05:55:18;99765.66;;;2.46;100.00
59971;BME280;45825;45.434;9.116;2022-12-13T05:57:44;99773.41;;;2.48;100.00
59971;BME280;45825;45.434;9.116;2022-12-13T06:00:10;99772.84;;;2.67;100.00
59971;BME280;45825;45.434;9.116;2022-12-13T06:02:37;99774.03;;;2.56;100.00
59971;BME280;45825;45.434;9.116;2022-12-13T06:05:02;99780.28;;;2.49;100.00
59971;BME280;45825;45.434;9.116;2022-12-13T06:07:28;99778.94;;;2.37;100.00
59971;BME280;45825;45.434;9.116;2022-12-13T06:09:53;99777.47;;;2.28;100.00
59971;BME280;45825;45.434;9.116;2022-12-13T06:12:18;99768.31;;;2.45;100.00
59971;BME280;45825;45.434;9.116;2022-12-13T06:14:43;99768.94;;;2.53;100.00
59971;BME280;45825;45.434;9.116;2022-12-13T06:17:09;99766.88;;;2.34;100.00
59971;BME280;45825;45.434;9.116;2022-12-13T06:19:35;99764.53;;;2.25;100.00
59971;BME280;45825;45.434;9.116;2022-12-13T06:22:00;99764.66;;;2.50;100.00
59971;BME280;45825;45.434;9.116;2022-12-13T06:24:25;99763.47;;;2.32;100.00
59971;BME280;45825;45.434;9.116;2022-12-13T06:26:52;99761.59;;;2.37;100.00
59971;BME280;45825;45.434;9.116;2022-12-13T06:29:18;99766.06;;;2.32;100.00
59971;BME280;45825;45.434;9.116;2022-12-13T06:31:44;99760.78;;;2.35;100.00
59971;BME280;45825;45.434;9.116;2022-12-13T06:34:09;99760.00;;;2.32;100.00
59971;BME280;45825;45.434;9.116;2022-12-13T06:36:35;99759.53;;;2.19;100.00
59971;BME280;45825;45.434;9.116;2022-12-13T06:39:02;99760.47;;;2.16;100.00
59971;BME280;45825;45.434;9.116;2022-12-13T06:41:27;99764.31;;;2.03;100.00
59971;BME280;45825;45.434;9.116;2022-12-13T06:43:53;99761.66;;;2.04;100.00
59971;BME280;45825;45.434;9.116;2022-12-13T06:46:18;99763.31;;;2.07;100.00
59971;BME280;45825;45.434;9.116;2022-12-13T06:48:44;99747.25;;;2.24;100.00
59971;BME280;45825;45.434;9.116;2022-12-13T06:51:10;99751.69;;;2.20;100.00
59971;BME280;45825;45.434;9.116;2022-12-13T06:53:37;99766.91;;;2.03;100.00
59971;BME280;45825;45.434;9.116;2022-12-13T06:56:05;99770.13;;;2.11;100.00
59971;BME280;45825;45.434;9.116;2022-12-13T06:58:32;99775.88;;;2.22;100.00
59971;BME280;45825;45.434;9.116;2022-12-13T07:01:03;99771.56;;;2.21;100.00
59971;BME280;45825;45.434;9.116;2022-12-13T07:03:29;99780.91;;;2.27;100.00
59971;BME280;45825;45.434;9.116;2022-12-13T07:05:56;99772.03;;;2.36;100.00
59971;BME280;45825;45.434;9.116;2022-12-13T07:08:21;99779.19;;;2.28;100.00
59971;BME280;45825;45.434;9.116;2022-12-13T07:10:47;99781.78;;;2.28;100.00
59971;BME280;45825;45.434;9.116;2022-12-13T07:13:12;99789.28;;;2.39;100.00
59971;BME280;45825;45.434;9.116;2022-12-13T07:15:38;99797.25;;;2.32;100.00
59971;BME280;45825;45.434;9.116;2022-12-13T07:18:03;99798.25;;;2.27;100.00
59971;BME280;45825;45.434;9.116;2022-12-13T07:20:28;99801.50;;;2.03;100.00
59971;BME280;45825;45.434;9.116;2022-12-13T07:22:54;99803.25;;;2.03;100.00
59971;BME280;45825;45.434;9.116;2022-12-13T07:25:21;99809.25;;;2.05;100.00
59971;BME280;45825;45.434;9.116;2022-12-13T07:27:47;99804.47;;;2.21;100.00
59971;BME280;45825;45.434;9.116;2022-12-13T07:30:13;99808.25;;;2.09;100.00
59971;BME280;45825;45.434;9.116;2022-12-13T07:32:39;99821.59;;;1.95;100.00
59971;BME280;45825;45.434;9.116;2022-12-13T07:35:04;99825.31;;;1.86;100.00
59971;BME280;45825;45.434;9.116;2022-12-13T07:37:30;99820.13;;;1.86;100.00
59971;BME280;45825;45.434;9.116;2022-12-13T07:39:55;99832.72;;;2.00;100.00
59971;BME280;45825;45.434;9.116;2022-12-13T07:42:20;99834.56;;;1.97;100.00
59971;BME280;45825;45.434;9.116;2022-12-13T07:44:46;99840.19;;;1.79;100.00
59971;BME280;45825;45.434;9.116;2022-12-13T07:47:11;99838.47;;;1.80;100.00
59971;BME280;45825;45.434;9.116;2022-12-13T07:49:36;99844.66;;;1.74;100.00
59971;BME280;45825;45.434;9.116;2022-12-13T07:52:02;99845.81;;;1.62;100.00
59971;BME280;45825;45.434;9.116;2022-12-13T07:54:27;99843.69;;;1.78;100.00
59971;BME280;45825;45.434;9.116;2022-12-13T07:56:53;99844.59;;;1.76;100.00
59971;BME280;45825;45.434;9.116;2022-12-13T07:59:18;99835.34;;;1.99;100.00
59971;BME280;45825;45.434;9.116;2022-12-13T08:01:43;99840.84;;;1.88;100.00
59971;BME280;45825;45.434;9.116;2022-12-13T08:04:09;99836.78;;;2.11;100.00
59971;BME280;45825;45.434;9.116;2022-12-13T08:06:36;99834.44;;;2.01;100.00
59971;BME280;45825;45.434;9.116;2022-12-13T08:09:02;99837.34;;;1.89;100.00
59971;BME280;45825;45.434;9.116;2022-12-13T08:11:27;99837.03;;;1.68;100.00
59971;BME280;45825;45.434;9.116;2022-12-13T08:13:53;99840.34;;;1.73;100.00
59971;BME280;45825;45.434;9.116;2022-12-13T08:16:19;99845.22;;;1.51;100.00
59971;BME280;45825;45.434;9.116;2022-12-13T08:18:44;99844.22;;;1.57;100.00
59971;BME280;45825;45.434;9.116;2022-12-13T08:21:13;99848.44;;;1.61;100.00
59971;BME280;45825;45.434;9.116;2022-12-13T08:23:39;99852.56;;;1.70;100.00
59971;BME280;45825;45.434;9.116;2022-12-13T08:26:05;99853.97;;;1.81;100.00
59971;BME280;45825;45.434;9.116;2022-12-13T08:28:31;99855.97;;;1.72;100.00
59971;BME280;45825;45.434;9.116;2022-12-13T08:31:08;99858.91;;;1.92;100.00
59971;BME280;45825;45.434;9.116;2022-12-13T08:33:38;99857.47;;;2.14;100.00
59971;BME280;45825;45.434;9.116;2022-12-13T08:36:12;99860.28;;;2.04;100.00
59971;BME280;45825;45.434;9.116;2022-12-13T08:38:40;99860.75;;;1.87;100.00
59971;BME280;45825;45.434;9.116;2022-12-13T08:41:06;99862.09;;;1.67;100.00
59971;BME280;45825;45.434;9.116;2022-12-13T08:43:31;99865.06;;;1.53;100.00
59971;BME280;45825;45.434;9.116;2022-12-13T08:45:56;99869.88;;;1.67;100.00
59971;BME280;45825;45.434;9.116;2022-12-13T08:48:22;99861.94;;;1.74;100.00
59971;BME280;45825;45.434;9.116;2022-12-13T08:50:48;99873.38;;;1.66;100.00
59971;BME280;45825;45.434;9.116;2022-12-13T08:53:13;99878.72;;;1.60;100.00
59971;BME280;45825;45.434;9.116;2022-12-13T08:55:38;99884.50;;;1.72;100.00
59971;BME280;45825;45.434;9.116;2022-12-13T08:58:04;99886.22;;;1.71;100.00
59971;BME280;45825;45.434;9.116;2022-12-13T09:00:34;99894.47;;;1.52;100.00
59971;BME280;45825;45.434;9.116;2022-12-13T09:03:00;99894.81;;;1.37;100.00
59971;BME280;45825;45.434;9.116;2022-12-13T09:05:27;99900.72;;;1.44;100.00
59971;BME280;45825;45.434;9.116;2022-12-13T09:07:56;99896.72;;;1.30;100.00
59971;BME280;45825;45.434;9.116;2022-12-13T09:10:22;99896.78;;;1.65;100.00
59971;BME280;45825;45.434;9.116;2022-12-13T09:12:47;99897.00;;;1.54;100.00
59971;BME280;45825;45.434;9.116;2022-12-13T09:15:13;99900.19;;;1.29;100.00
59971;BME280;45825;45.434;9.116;2022-12-13T09:17:38;99905.75;;;1.50;100.00
59971;BME280;45825;45.434;9.116;2022-12-13T09:20:06;99912.38;;;1.62;100.00
59971;BME280;45825;45.434;9.116;2022-12-13T09:22:32;99909.16;;;1.52;100.00
59971;BME280;45825;45.434;9.116;2022-12-13T09:24:57;99914.59;;;1.79;100.00
59971;BME280;45825;45.434;9.116;2022-12-13T09:27:22;99928.69;;;2.03;100.00
59971;BME280;45825;45.434;9.116;2022-12-13T09:29:49;99931.13;;;2.09;100.00
59971;BME280;45825;45.434;9.116;2022-12-13T09:32:14;99933.66;;;2.11;100.00
59971;BME280;45825;45.434;9.116;2022-12-13T09:34:39;99938.84;;;2.13;100.00
59971;BME280;45825;45.434;9.116;2022-12-13T09:37:05;99937.66;;;1.91;100.00
59971;BME280;45825;45.434;9.116;2022-12-13T09:39:30;99932.59;;;1.49;100.00
59971;BME280;45825;45.434;9.116;2022-12-13T09:41:57;99926.13;;;1.67;100.00
59971;BME280;45825;45.434;9.116;2022-12-13T09:44:26;99926.59;;;1.83;100.00
59971;BME280;45825;45.434;9.116;2022-12-13T09:46:54;99919.94;;;1.73;100.00
59971;BME280;45825;45.434;9.116;2022-12-13T09:49:27;99919.84;;;1.76;100.00
59971;BME280;45825;45.434;9.116;2022-12-13T09:51:56;99913.44;;;1.89;100.00
59971;BME280;45825;45.434;9.116;2022-12-13T09:54:24;99908.56;;;1.77;100.00
59971;BME280;45825;45.434;9.116;2022-12-13T09:56:50;99914.59;;;1.79;100.00
59971;BME280;45825;45.434;9.116;2022-12-13T09:59:34;99910.13;;;1.84;100.00
59971;BME280;45825;45.434;9.116;2022-12-13T10:02:14;99916.88;;;1.91;100.00
59971;BME280;45825;45.434;9.116;2022-12-13T10:04:41;99908.56;;;1.77;100.00
59971;BME280;45825;45.434;9.116;2022-12-13T10:07:18;99909.22;;;1.87;100.00
59971;BME280;45825;45.434;9.116;2022-12-13T10:09:45;99904.84;;;1.89;100.00
59971;BME280;45825;45.434;9.116;2022-12-13T16:25:17;99784.53;;;2.53;100.00
59971;BME280;45825;45.434;9.116;2022-12-13T16:27:44;99783.63;;;2.54;100.00
59971;BME280;45825;45.434;9.116;2022-12-13T16:30:26;99784.56;;;2.80;100.00
59971;BME280;45825;45.434;9.116;2022-12-13T16:32:52;99785.59;;;3.03;100.00
59971;BME280;45825;45.434;9.116;2022-12-13T16:35:18;99779.06;;;2.91;100.00
59971;BME280;45825;45.434;9.116;2022-12-13T16:37:43;99785.94;;;2.92;100.00
59971;BME280;45825;45.434;9.116;2022-12-13T16:40:22;99786.44;;;2.76;100.00
59971;BME280;45825;45.434;9.116;2022-12-13T16:42:48;99794.22;;;2.76;100.00
59971;BME280;45825;45.434;9.116;2022-12-13T16:45:14;99789.88;;;2.77;100.00
59971;BME280;45825;45.434;9.116;2022-12-13T16:47:39;99786.47;;;2.75;100.00
59971;BME280;45825;45.434;9.116;2022-12-13T16:50:13;99790.38;;;2.88;100.00
59971;BME280;45825;45.434;9.116;2022-12-13T16:52:38;99789.31;;;2.96;100.00
59971;BME280;45825;45.434;9.116;2022-12-13T16:55:04;99793.38;;;2.76;100.00
59971;BME280;45825;45.434;9.116;2022-12-13T16:57:30;99792.94;;;2.90;100.00
59971;BME280;45825;45.434;9.116;2022-12-13T16:59:55;99785.75;;;2.70;100.00
59971;BME280;45825;45.434;9.116;2022-12-13T17:02:20;99779.81;;;2.66;100.00
59971;BME280;45825;45.434;9.116;2022-12-13T17:04:46;99781.59;;;2.64;100.00
59971;BME280;45825;45.434;9.116;2022-12-13T17:07:11;99769.31;;;2.69;100.00
59971;BME280;45825;45.434;9.116;2022-12-13T17:09:37;99766.38;;;2.80;100.00
59971;BME280;45825;45.434;9.116;2022-12-13T17:12:03;99761.69;;;2.91;100.00
59971;BME280;45825;45.434;9.116;2022-12-13T17:14:28;99762.69;;;2.87;100.00
59971;BME280;45825;45.434;9.116;2022-12-13T17:16:54;99758.09;;;2.96;100.00
59971;BME280;45825;45.434;9.116;2022-12-13T17:19:19;99750.88;;;2.77;100.00
59971;BME280;45825;45.434;9.116;2022-12-13T17:21:44;99763.50;;;2.89;100.00
59971;BME280;45825;45.434;9.116;2022-12-13T17:24:10;99761.09;;;2.83;100.00
59971;BME280;45825;45.434;9.116;2022-12-13T17:26:35;99767.38;;;3.03;100.00
59971;BME280;45825;45.434;9.116;2022-12-13T17:29:00;99771.19;;;2.92;100.00
59971;BME280;45825;45.434;9.116;2022-12-13T17:31:26;99768.28;;;2.75;100.00
59971;BME280;45825;45.434;9.116;2022-12-13T17:33:51;99769.63;;;2.87;100.00
59971;BME280;45825;45.434;9.116;2022-12-13T17:36:17;99766.38;;;2.80;100.00
59971;BME280;45825;45.434;9.116;2022-12-13T17:38:43;99765.47;;;2.81;100.00
59971;BME280;45825;45.434;9.116;2022-12-13T17:41:13;99762.59;;;2.90;100.00
59971;BME280;45825;45.434;9.116;2022-12-13T17:43:39;99762.19;;;3.03;100.00
59971;BME280;45825;45.434;9.116;2022-12-13T17:46:09;99761.41;;;3.01;100.00
59971;BME280;45825;45.434;9.116;2022-12-13T17:48:35;99766.22;;;2.85;100.00
59971;BME280;45825;45.434;9.116;2022-12-13T17:51:03;99773.97;;;2.88;100.00
59971;BME280;45825;45.434;9.116;2022-12-13T17:53:29;99770.78;;;2.78;100.00
59971;BME280;45825;45.434;9.116;2022-12-13T17:55:56;99775.56;;;2.63;100.00
59971;BME280;45825;45.434;9.116;2022-12-13T17:58:23;99770.50;;;2.87;100.00
59971;BME280;45825;45.434;9.116;2022-12-13T18:00:48;99766.81;;;2.95;100.00
59971;BME280;45825;45.434;9.116;2022-12-13T18:03:13;99775.44;;;2.95;100.00
59971;BME280;45825;45.434;9.116;2022-12-13T18:05:39;99770.53;;;2.86;100.00
59971;BME280;45825;45.434;9.116;2022-12-13T18:08:04;99757.53;;;2.86;100.00
59971;BME280;45825;45.434;9.116;2022-12-13T18:10:29;99779.81;;;2.95;100.00
59971;BME280;45825;45.434;9.116;2022-12-13T18:12:55;99774.84;;;3.14;100.00
59971;BME280;45825;45.434;9.116;2022-12-13T18:15:20;99771.28;;;2.89;100.00
59971;BME280;45825;45.434;9.116;2022-12-13T18:17:45;99766.66;;;2.99;100.00
59971;BME280;45825;45.434;9.116;2022-12-13T18:20:11;99763.44;;;2.91;100.00
59971;BME280;45825;45.434;9.116;2022-12-13T18:22:36;99761.50;;;2.98;100.00
59971;BME280;45825;45.434;9.116;2022-12-13T18:25:02;99761.91;;;3.12;100.00
59971;BME280;45825;45.434;9.116;2022-12-13T18:27:27;99763.38;;;2.92;100.00
59971;BME280;45825;45.434;9.116;2022-12-13T18:29:52;99764.00;;;3.01;100.00
59971;BME280;45825;45.434;9.116;2022-12-13T18:32:17;99756.41;;;2.95;100.00
59971;BME280;45825;45.434;9.116;2022-12-13T18:34:43;99741.63;;;2.97;100.00
59971;BME280;45825;45.434;9.116;2022-12-13T18:37:08;99743.69;;;3.12;100.00
59971;BME280;45825;45.434;9.116;2022-12-13T18:39:34;99733.59;;;3.03;100.00
59971;BME280;45825;45.434;9.116;2022-12-13T18:41:59;99741.06;;;3.14;100.00
59971;BME280;45825;45.434;9.116;2022-12-13T18:44:24;99741.31;;;3.06;100.00
59971;BME280;45825;45.434;9.116;2022-12-13T18:46:50;99742.25;;;3.03;100.00
59971;BME280;45825;45.434;9.116;2022-12-13T18:49:15;99746.25;;;3.14;100.00
59971;BME280;45825;45.434;9.116;2022-12-13T18:51:41;99745.66;;;3.05;100.00
59971;BME280;45825;45.434;9.116;2022-12-13T18:54:06;99750.75;;;3.08;100.00
59971;BME280;45825;45.434;9.116;2022-12-13T18:56:32;99751.59;;;3.09;100.00
59971;BME280;45825;45.434;9.116;2022-12-13T18:58:57;99765.00;;;3.24;100.00
59971;BME280;45825;45.434;9.116;2022-12-13T19:01:24;99755.31;;;3.29;100.00
59971;BME280;45825;45.434;9.116;2022-12-13T19:03:51;99750.31;;;3.48;100.00
59971;BME280;45825;45.434;9.116;2022-12-13T19:06:19;99761.00;;;3.66;100.00
59971;BME280;45825;45.434;9.116;2022-12-13T19:08:46;99770.06;;;3.54;100.00
59971;BME280;45825;45.434;9.116;2022-12-13T19:11:13;99765.28;;;3.41;100.00
59971;BME280;45825;45.434;9.116;2022-12-13T19:13:38;99769.06;;;3.32;100.00
59971;BME280;45825;45.434;9.116;2022-12-13T19:16:06;99762.69;;;3.41;100.00
59971;BME280;45825;45.434;9.116;2022-12-13T19:18:32;99765.63;;;3.30;100.00
59971;BME280;45825;45.434;9.116;2022-12-13T19:20:58;99759.44;;;3.34;100.00
59971;BME280;45825;45.434;9.116;2022-12-13T19:23:23;99759.22;;;3.41;100.00
59971;BME280;45825;45.434;9.116;2022-12-13T19:25:49;99756.16;;;3.55;100.00